createdAt,value
2022-10-29T00:01:10.625Z,44.77
2022-10-29T00:03:39.155Z,44.03
2022-10-29T00:06:10.767Z,43.93
2022-10-29T00:08:40.568Z,47.97
2022-10-29T00:11:10.371Z,46.17
2022-10-29T00:13:40.958Z,46.77
2022-10-29T00:16:11.574Z,44.70
2022-10-29T00:18:40.054Z,43.60
2022-10-29T00:21:11.585Z,44.80
2022-10-29T00:23:40.001Z,46.90
2022-10-29T00:26:08.741Z,47.17
2022-10-29T00:28:37.122Z,47.50
2022-10-29T00:31:08.001Z,47.13
2022-10-29T00:33:36.484Z,47.40
2022-10-29T00:36:07.212Z,47.50
2022-10-29T00:38:36.578Z,47.10
2022-10-29T00:41:06.975Z,47.67
2022-10-29T00:43:37.073Z,47.30
2022-10-29T00:46:10.387Z,49.57
2022-10-29T00:48:43.538Z,48.13
2022-10-29T00:51:14.223Z,48.67
2022-10-29T00:53:47.066Z,49.43
2022-10-29T00:56:16.051Z,52.50
2022-10-29T00:58:45.466Z,48.57
2022-10-29T01:01:15.630Z,47.63
2022-10-29T01:03:44.360Z,48.67
2022-10-29T01:06:12.771Z,50.27
2022-10-29T01:08:41.125Z,50.87
2022-10-29T01:11:19.989Z,50.00
2022-10-29T01:14:05.796Z,47.30
2022-10-29T01:16:43.091Z,47.17
2022-10-29T01:19:17.802Z,47.70
2022-10-29T01:21:47.086Z,49.60
2022-10-29T01:24:43.703Z,50.00
2022-10-29T01:27:48.110Z,46.60
2022-10-29T01:30:22.491Z,49.13
2022-10-29T01:33:00.243Z,48.80
2022-10-29T01:35:38.238Z,45.90
2022-10-29T01:38:18.432Z,47.80
2022-10-29T01:40:52.625Z,48.97
2022-10-29T01:43:27.799Z,47.37
2022-10-29T01:46:01.264Z,49.77
2022-10-29T01:48:36.043Z,49.53
2022-10-29T01:51:09.248Z,49.10
2022-10-29T01:53:38.707Z,50.10
2022-10-29T01:56:07.710Z,50.17
2022-10-29T01:58:38.204Z,47.00
2022-10-29T02:01:18.158Z,46.57
2022-10-29T02:03:57.085Z,45.47
2022-10-29T02:06:34.717Z,47.60
2022-10-29T02:09:10.346Z,48.80
2022-10-29T02:11:45.629Z,48.10
2022-10-29T02:14:19.146Z,46.13
2022-10-29T02:16:48.126Z,49.30
2022-10-29T02:19:17.968Z,48.47
2022-10-29T02:21:46.306Z,45.20
2022-10-29T02:24:14.689Z,46.43
2022-10-29T02:26:43.049Z,47.10
2022-10-29T02:29:11.517Z,46.40
2022-10-29T02:31:39.954Z,44.27
2022-10-29T02:34:08.334Z,45.30
2022-10-29T02:36:38.262Z,46.30
2022-10-29T02:39:06.650Z,43.97
2022-10-29T02:41:35.044Z,43.50
2022-10-29T02:44:03.403Z,44.63
2022-10-29T02:46:31.684Z,46.70
2022-10-29T02:49:00.054Z,43.77
2022-10-29T02:51:28.410Z,49.13
2022-10-29T02:53:58.362Z,48.10
2022-10-29T02:56:26.736Z,47.20
2022-10-29T02:58:55.063Z,47.23
2022-10-29T03:01:23.663Z,45.37
2022-10-29T03:03:52.076Z,45.40
2022-10-29T03:06:21.124Z,44.30
2022-10-29T03:08:49.994Z,44.60
2022-10-29T03:11:20.903Z,46.60
2022-10-29T03:13:49.258Z,44.60
2022-10-29T03:16:17.585Z,43.80
2022-10-29T03:18:45.859Z,44.80
2022-10-29T03:21:14.169Z,42.17
2022-10-29T03:23:42.482Z,45.03
2022-10-29T03:26:11.750Z,45.10
2022-10-29T03:28:41.490Z,46.00
2022-10-29T03:31:09.904Z,43.60
2022-10-29T03:33:38.298Z,43.17
2022-10-29T03:36:08.238Z,41.73
2022-10-29T03:38:36.616Z,44.23
2022-10-29T03:41:10.277Z,41.27
2022-10-29T03:43:39.334Z,40.20
2022-10-29T03:46:09.076Z,37.97
2022-10-29T03:48:37.817Z,40.13
2022-10-29T03:51:08.064Z,40.20
2022-10-29T03:53:37.683Z,41.10
2022-10-29T03:56:06.857Z,41.40
2022-10-29T03:58:35.275Z,42.37
2022-10-29T04:01:05.840Z,40.87
2022-10-29T04:03:36.950Z,42.60
2022-10-29T04:06:15.972Z,41.07
2022-10-29T04:08:44.564Z,42.77
2022-10-29T04:11:14.281Z,40.63
2022-10-29T04:13:42.966Z,39.60
2022-10-29T04:16:11.258Z,43.00
2022-10-29T04:18:40.992Z,40.60
2022-10-29T04:29:35.222Z,39.90
2022-10-29T04:32:03.603Z,38.07
2022-10-29T04:34:33.418Z,37.40
2022-10-29T04:37:01.681Z,37.97
2022-10-29T04:39:30.015Z,39.40
2022-10-29T04:41:58.343Z,39.10
2022-10-29T04:44:26.735Z,39.87
2022-10-29T04:46:55.014Z,37.90
2022-10-29T04:49:23.336Z,39.13
2022-10-29T04:51:52.970Z,40.57
2022-10-29T04:54:21.226Z,39.50
2022-10-29T04:56:49.522Z,43.93
2022-10-29T04:59:17.847Z,39.97
2022-10-29T05:01:46.155Z,40.70
2022-10-29T05:04:14.665Z,41.60
2022-10-29T05:06:43.003Z,40.70
2022-10-29T05:09:12.765Z,40.80
2022-10-29T05:11:41.166Z,42.77
2022-10-29T05:14:09.523Z,41.23
2022-10-29T05:16:37.870Z,43.27
2022-10-29T05:19:06.672Z,42.10
2022-10-29T05:21:35.086Z,43.03
2022-10-29T05:24:03.464Z,42.83
2022-10-29T05:26:34.250Z,43.33
2022-10-29T05:29:02.667Z,41.97
2022-10-29T05:31:31.067Z,41.37
2022-10-29T05:33:59.457Z,42.30
2022-10-29T05:36:27.856Z,40.17
2022-10-29T05:38:56.247Z,40.80
2022-10-29T05:41:24.719Z,40.70
2022-10-29T05:43:54.363Z,41.63
2022-10-29T05:46:22.758Z,40.67
2022-10-29T05:48:51.177Z,41.70
2022-10-29T05:51:19.555Z,42.80
2022-10-29T05:53:48.895Z,43.00
2022-10-29T05:56:17.282Z,41.90
2022-10-29T05:58:45.696Z,39.80
2022-10-29T06:01:15.586Z,41.70
2022-10-29T06:03:43.932Z,41.23
2022-10-29T06:06:12.380Z,40.70
2022-10-29T06:08:40.775Z,42.73
2022-10-29T06:11:09.179Z,44.90
2022-10-29T06:13:37.819Z,46.80
2022-10-29T06:16:06.905Z,45.23
2022-10-29T06:18:36.532Z,42.40
2022-10-29T06:21:05.002Z,42.00
2022-10-29T06:23:33.316Z,41.50
2022-10-29T06:26:01.934Z,42.90
2022-10-29T06:28:33.730Z,40.47
2022-10-29T06:31:03.378Z,42.20
2022-10-29T06:33:31.861Z,42.43
2022-10-29T06:36:02.277Z,40.30
2022-10-29T06:38:30.696Z,40.00
2022-10-29T06:40:59.000Z,39.30
2022-10-29T06:43:27.411Z,41.00
2022-10-29T06:45:55.859Z,36.90
2022-10-29T06:48:24.371Z,32.63
2022-10-29T06:50:52.785Z,31.23
2022-10-29T06:53:22.687Z,28.63
2022-10-29T06:55:51.056Z,28.80
2022-10-29T06:58:21.164Z,26.70
2022-10-29T07:00:49.891Z,26.30
2022-10-29T07:03:20.474Z,23.67
2022-10-29T07:05:49.317Z,23.00
2022-10-29T07:08:17.711Z,20.60
2022-10-29T07:10:51.323Z,20.80
2022-10-29T07:13:19.715Z,20.87
2022-10-29T07:15:48.134Z,20.87
2022-10-29T07:18:17.011Z,20.80
2022-10-29T07:20:46.271Z,20.07
2022-10-29T07:23:15.171Z,19.20
2022-10-29T07:25:43.877Z,18.80
2022-10-29T07:28:16.298Z,20.70
2022-10-29T07:30:45.322Z,20.90
2022-10-29T07:33:13.978Z,21.70
2022-10-29T07:35:42.538Z,22.57
2022-10-29T07:38:12.413Z,21.20
2022-10-29T07:40:46.922Z,23.17
2022-10-29T07:43:16.849Z,22.90
2022-10-29T07:45:46.960Z,22.33
2022-10-29T07:48:15.224Z,20.50
2022-10-29T07:50:43.726Z,20.60
2022-10-29T07:53:12.552Z,21.70
2022-10-29T07:55:40.925Z,20.93
2022-10-29T07:58:11.945Z,19.10
2022-10-29T08:00:42.737Z,16.50
2022-10-29T08:03:12.777Z,13.60
2022-10-29T08:05:42.903Z,15.13
2022-10-29T08:08:14.716Z,16.77
2022-10-29T08:10:43.120Z,18.40
2022-10-29T08:13:11.445Z,16.37
2022-10-29T08:15:41.233Z,16.00
2022-10-29T08:18:17.208Z,17.40
2022-10-29T08:20:46.429Z,18.00
2022-10-29T08:23:14.881Z,17.33
2022-10-29T08:25:44.177Z,16.20
2022-10-29T08:28:14.320Z,15.90
2022-10-29T08:30:45.262Z,13.93
2022-10-29T08:33:13.581Z,14.30
2022-10-29T08:35:42.029Z,14.37
2022-10-29T08:38:10.515Z,13.87
2022-10-29T08:40:51.805Z,13.83
2022-10-29T08:43:46.157Z,16.63
2022-10-29T08:46:22.174Z,16.83
2022-10-29T08:48:53.406Z,14.33
2022-10-29T08:51:25.624Z,16.50
2022-10-29T08:56:51.377Z,16.20
2022-10-29T08:59:22.676Z,15.70
2022-10-29T09:01:53.880Z,15.60
2022-10-29T09:04:27.861Z,15.03
2022-10-29T09:07:21.153Z,14.60
2022-10-29T09:09:58.706Z,16.93
2022-10-29T09:12:56.167Z,15.73
2022-10-29T09:15:41.431Z,12.77
2022-10-29T09:18:35.362Z,11.73
2022-10-29T09:21:13.726Z,11.13
2022-10-29T09:24:08.849Z,12.77
2022-10-29T09:26:49.271Z,11.87
2022-10-29T09:29:33.184Z,11.40
2022-10-29T09:32:04.348Z,10.00
2022-10-29T09:34:39.814Z,13.90
2022-10-29T09:37:16.671Z,13.57
2022-10-29T09:39:47.969Z,17.00
2022-10-29T09:42:20.867Z,15.47
2022-10-29T09:44:55.132Z,14.00
2022-10-29T09:47:35.034Z,15.57
2022-10-29T09:50:20.645Z,12.07
2022-10-29T09:52:50.586Z,10.80
2022-10-29T09:55:23.276Z,16.50
2022-10-29T09:57:51.943Z,16.93
2022-10-29T10:00:23.894Z,17.57
2022-10-29T10:02:59.483Z,14.13
2022-10-29T10:05:31.303Z,18.90
2022-10-29T10:08:07.650Z,20.73
2022-10-29T10:10:38.104Z,19.90
2022-10-29T10:13:16.990Z,20.30
2022-10-29T10:15:53.142Z,21.10
2022-10-29T10:18:24.107Z,19.80
2022-10-29T10:21:09.274Z,21.33
2022-10-29T10:23:43.869Z,19.07
2022-10-29T10:26:34.827Z,20.53
2022-10-29T10:29:22.194Z,18.90
2022-10-29T10:31:52.080Z,18.97
2022-10-29T10:34:22.341Z,17.20
2022-10-29T10:36:55.122Z,21.00
2022-10-29T10:39:29.848Z,16.27
2022-10-29T10:42:01.454Z,17.17
2022-10-29T10:44:30.337Z,16.90
2022-10-29T10:47:05.543Z,18.07
2022-10-29T10:49:36.501Z,16.10
2022-10-29T10:52:13.924Z,17.20
2022-10-29T10:54:46.434Z,17.23
2022-10-29T10:57:23.763Z,16.27
2022-10-29T11:00:04.128Z,16.43
2022-10-29T11:02:40.478Z,17.30
2022-10-29T11:05:17.514Z,17.27
2022-10-29T11:07:54.084Z,19.43
2022-10-29T11:10:32.072Z,17.60
2022-10-29T11:13:04.146Z,17.47
2022-10-29T11:15:40.188Z,17.20
2022-10-29T11:20:58.116Z,20.30
2022-10-29T11:23:37.150Z,17.37
2022-10-29T11:26:11.102Z,17.30
2022-10-29T11:28:42.137Z,19.37
2022-10-29T11:31:17.522Z,19.20
2022-10-29T11:33:51.974Z,20.30
2022-10-29T11:36:22.987Z,21.77
2022-10-29T11:38:57.467Z,20.50
2022-10-29T11:41:32.315Z,20.10
2022-10-29T11:44:01.071Z,20.07
2022-10-29T11:46:40.424Z,19.17
2022-10-29T11:49:27.960Z,18.00
2022-10-29T11:52:06.062Z,18.10
2022-10-29T11:54:48.144Z,17.80
2022-10-29T11:57:24.039Z,18.80
2022-10-29T12:00:04.649Z,17.80
2022-10-29T12:03:02.918Z,16.33
2022-10-29T12:05:38.026Z,16.73
2022-10-29T12:08:21.404Z,17.13
2022-10-29T12:11:00.556Z,17.50
2022-10-29T12:13:48.773Z,17.13
2022-10-29T12:16:29.815Z,18.03
2022-10-29T12:19:06.160Z,16.57
2022-10-29T12:21:43.878Z,16.90
2022-10-29T12:24:27.343Z,15.70
2022-10-29T12:27:05.259Z,16.40
2022-10-29T12:29:40.085Z,14.90
2022-10-29T12:32:16.421Z,16.60
2022-10-29T12:34:50.531Z,15.40
2022-10-29T12:37:28.604Z,16.67
2022-10-29T12:40:01.575Z,15.23
2022-10-29T12:42:31.478Z,15.87
2022-10-29T12:45:07.945Z,16.20
2022-10-29T12:47:41.822Z,17.73
2022-10-29T12:50:23.277Z,15.93
2022-10-29T12:52:59.436Z,14.60
2022-10-29T12:55:28.985Z,13.90
2022-10-29T12:57:58.788Z,15.20
2022-10-29T13:00:34.742Z,14.90
2022-10-29T13:03:03.678Z,14.87
2022-10-29T13:05:43.413Z,14.00
2022-10-29T13:08:36.202Z,14.90
2022-10-29T13:11:20.847Z,12.40
2022-10-29T13:13:59.402Z,13.07
2022-10-29T13:16:30.817Z,12.60
2022-10-29T13:19:24.280Z,11.50
2022-10-29T13:21:57.777Z,12.23
2022-10-29T13:24:26.698Z,10.47
2022-10-29T13:27:01.306Z,11.17
2022-10-29T13:29:51.565Z,10.40
2022-10-29T13:32:37.996Z,12.07
2022-10-29T13:35:32.602Z,10.70
2022-10-29T13:38:19.490Z,11.93
2022-10-29T13:41:11.853Z,12.20
2022-10-29T13:43:42.487Z,12.20
2022-10-29T13:46:55.917Z,11.47
2022-10-29T13:49:31.141Z,10.07
2022-10-29T13:52:01.690Z,12.37
2022-10-29T13:54:39.598Z,12.70
2022-10-29T13:57:17.032Z,11.77
2022-10-29T13:59:51.001Z,12.20
2022-10-29T14:02:33.516Z,11.50
2022-10-29T14:05:10.256Z,10.83
2022-10-29T14:07:45.212Z,11.83
2022-10-29T14:10:21.369Z,11.10
2022-10-29T14:12:52.407Z,10.40
2022-10-29T14:15:20.829Z,11.80
2022-10-29T14:17:49.281Z,11.27
2022-10-29T14:20:24.410Z,12.07
2022-10-29T14:22:52.814Z,11.63
2022-10-29T14:25:30.711Z,10.23
2022-10-29T14:28:16.055Z,10.47
2022-10-29T14:30:44.840Z,9.97
2022-10-29T14:33:26.856Z,10.13
2022-10-29T14:36:03.163Z,11.10
2022-10-29T14:38:38.942Z,10.63
2022-10-29T14:41:07.469Z,9.80
2022-10-29T14:43:36.325Z,9.87
2022-10-29T14:46:14.263Z,10.00
2022-10-29T14:48:52.965Z,11.03
2022-10-29T14:51:23.749Z,10.20
2022-10-29T14:53:59.329Z,10.70
2022-10-29T14:56:33.615Z,9.90
2022-10-29T14:59:05.151Z,10.17
2022-10-29T15:01:33.741Z,10.93
2022-10-29T15:04:02.279Z,9.67
2022-10-29T15:06:32.241Z,8.63
2022-10-29T15:09:03.775Z,9.20
2022-10-29T15:11:40.415Z,10.20
2022-10-29T15:16:56.058Z,9.40
2022-10-29T15:19:24.549Z,9.57
2022-10-29T15:21:54.342Z,9.50
2022-10-29T15:24:24.900Z,11.43
2022-10-29T15:26:55.765Z,11.40
2022-10-29T15:29:32.167Z,10.63
2022-10-29T15:32:02.453Z,10.37
2022-10-29T15:34:34.011Z,10.80
2022-10-29T15:37:24.961Z,10.57
2022-10-29T15:40:06.432Z,8.60
2022-10-29T15:42:36.422Z,8.60
2022-10-29T15:45:25.441Z,8.47
2022-10-29T15:47:57.957Z,8.27
2022-10-29T15:50:28.947Z,9.07
2022-10-29T15:53:01.821Z,8.30
2022-10-29T15:55:33.676Z,8.67
2022-10-29T15:58:04.461Z,9.30
2022-10-29T16:00:33.341Z,8.80
2022-10-29T16:03:13.083Z,9.67
2022-10-29T16:05:42.022Z,9.43
2022-10-29T16:08:22.058Z,8.23
2022-10-29T16:10:50.525Z,9.00
2022-10-29T16:13:19.961Z,8.83
2022-10-29T16:15:48.293Z,8.67
2022-10-29T16:18:16.787Z,8.57
2022-10-29T16:20:45.614Z,8.67
2022-10-29T16:23:15.766Z,9.27
2022-10-29T16:25:44.222Z,8.40
2022-10-29T16:28:12.645Z,9.17
2022-10-29T16:30:41.191Z,8.20
2022-10-29T16:33:11.431Z,8.63
2022-10-29T16:35:39.831Z,8.80
2022-10-29T16:38:08.186Z,9.00
2022-10-29T16:40:38.041Z,8.37
2022-10-29T16:43:06.492Z,8.53
2022-10-29T16:45:34.825Z,9.10
2022-10-29T16:48:03.356Z,8.47
2022-10-29T16:50:33.022Z,9.13
2022-10-29T16:53:03.047Z,9.70
2022-10-29T16:55:31.642Z,9.40
2022-10-29T16:58:01.469Z,9.20
2022-10-29T17:00:31.970Z,8.00
2022-10-29T17:03:04.837Z,8.90
2022-10-29T17:05:39.136Z,9.47
2022-10-29T17:08:08.102Z,10.07
2022-10-29T17:10:36.706Z,9.30
2022-10-29T17:13:09.054Z,9.43
2022-10-29T17:15:40.309Z,9.03
2022-10-29T17:18:08.830Z,8.63
2022-10-29T17:20:37.191Z,10.07
2022-10-29T17:23:06.478Z,10.70
2022-10-29T17:25:34.876Z,10.20
2022-10-29T17:28:04.549Z,9.67
2022-10-29T17:30:34.270Z,10.00
2022-10-29T17:33:02.595Z,10.40
2022-10-29T17:35:30.827Z,9.77
2022-10-29T17:37:59.225Z,9.93
2022-10-29T17:40:27.639Z,10.63
2022-10-29T17:42:56.345Z,10.23
2022-10-29T17:45:24.904Z,9.40
2022-10-29T17:47:58.202Z,10.30
2022-10-29T17:50:27.407Z,10.17
2022-10-29T17:52:57.882Z,10.30
2022-10-29T17:55:26.423Z,10.03
2022-10-29T17:57:55.374Z,9.77
2022-10-29T18:00:23.918Z,10.13
2022-10-29T18:02:52.748Z,9.53
2022-10-29T18:05:22.939Z,10.67
2022-10-29T18:07:51.279Z,10.27
2022-10-29T18:10:19.723Z,9.47
2022-10-29T18:12:48.098Z,10.40
2022-10-29T18:15:16.547Z,11.07
2022-10-29T18:17:45.100Z,10.67
2022-10-29T18:20:13.427Z,9.67
2022-10-29T18:22:43.048Z,11.03
2022-10-29T18:25:11.410Z,12.10
2022-10-29T18:27:40.737Z,12.50
2022-10-29T18:30:10.465Z,11.70
2022-10-29T18:32:38.834Z,11.40
2022-10-29T18:35:08.466Z,12.60
2022-10-29T18:37:36.764Z,13.60
2022-10-29T18:40:07.647Z,12.97
2022-10-29T18:42:36.219Z,12.20
2022-10-29T18:45:04.846Z,13.40
2022-10-29T18:47:33.222Z,14.67
2022-10-29T18:50:01.644Z,13.57
2022-10-29T18:52:30.258Z,12.23
2022-10-29T18:54:58.645Z,12.53
2022-10-29T18:57:28.372Z,11.90
2022-10-29T18:59:56.742Z,13.03
2022-10-29T19:02:25.255Z,11.60
2022-10-29T19:04:53.922Z,10.77
2022-10-29T19:07:22.404Z,13.63
2022-10-29T19:09:50.917Z,10.70
2022-10-29T19:12:19.266Z,11.87
2022-10-29T19:14:48.985Z,11.37
2022-10-29T19:17:17.389Z,11.57
2022-10-29T19:19:45.867Z,11.27
2022-10-29T19:22:14.172Z,11.43
2022-10-29T19:24:42.508Z,13.20
2022-10-29T19:27:10.868Z,11.80
2022-10-29T19:29:39.247Z,12.40
2022-10-29T19:32:08.921Z,12.30
2022-10-29T19:37:10.471Z,11.87
2022-10-29T19:39:38.990Z,12.30
2022-10-29T19:42:07.454Z,11.17
2022-10-29T19:44:35.821Z,11.93
2022-10-29T19:47:04.375Z,11.40
2022-10-29T19:49:34.132Z,12.33
2022-10-29T19:52:02.492Z,11.90
2022-10-29T19:54:30.753Z,11.80
2022-10-29T19:56:59.077Z,11.97
2022-10-29T19:59:27.488Z,10.93
2022-10-29T20:01:55.867Z,13.40
2022-10-29T20:04:24.365Z,12.53
2022-10-29T20:06:54.066Z,12.43
2022-10-29T20:09:22.383Z,11.70
2022-10-29T20:11:50.789Z,11.70
2022-10-29T20:14:19.260Z,12.97
2022-10-29T20:16:47.635Z,12.80
2022-10-29T20:19:16.009Z,12.43
2022-10-29T20:21:44.394Z,12.27
2022-10-29T20:24:14.022Z,12.10
2022-10-29T20:26:42.401Z,12.57
2022-10-29T20:29:12.613Z,12.30
2022-10-29T20:31:41.750Z,11.90
2022-10-29T20:34:11.225Z,13.03
2022-10-29T20:36:39.656Z,13.30
2022-10-29T20:39:08.412Z,13.03
2022-10-29T20:41:38.204Z,12.77
2022-10-29T20:44:06.751Z,11.50
2022-10-29T20:46:39.375Z,13.47
2022-10-29T20:49:11.090Z,13.00
2022-10-29T20:51:39.511Z,13.60
2022-10-29T20:54:08.031Z,12.90
2022-10-29T20:56:37.824Z,13.00
2022-10-29T20:59:06.749Z,13.43
2022-10-29T21:01:35.204Z,13.40
2022-10-29T21:04:03.723Z,14.70
2022-10-29T21:06:32.127Z,14.70
2022-10-29T21:09:00.743Z,15.07
2022-10-29T21:11:29.127Z,14.40
2022-10-29T21:13:58.913Z,14.50
2022-10-29T21:16:28.904Z,15.00
2022-10-29T21:18:59.253Z,15.87
2022-10-29T21:21:28.481Z,15.07
2022-10-29T21:23:57.919Z,14.70
2022-10-29T21:26:28.303Z,15.10
2022-10-29T21:28:58.907Z,13.80
2022-10-29T21:31:27.512Z,15.67
2022-10-29T21:33:56.700Z,14.67
2022-10-29T21:36:25.247Z,14.70
2022-10-29T21:38:53.712Z,13.20
2022-10-29T21:41:22.103Z,13.53
2022-10-29T21:43:50.490Z,12.90
2022-10-29T21:46:20.249Z,16.10
2022-10-29T21:48:48.510Z,15.90
2022-10-29T21:51:17.316Z,14.60
2022-10-29T21:53:45.780Z,15.87
2022-10-29T21:56:15.615Z,13.10
2022-10-29T21:58:44.025Z,14.83
2022-10-29T22:01:14.659Z,13.30
2022-10-29T22:03:46.104Z,12.57
2022-10-29T22:06:16.340Z,14.27
2022-10-29T22:08:45.387Z,13.60
2022-10-29T22:11:14.972Z,13.23
2022-10-29T22:13:43.424Z,13.53
2022-10-29T22:16:12.467Z,13.57
2022-10-29T22:18:41.286Z,14.00
2022-10-29T22:21:14.635Z,12.90
2022-10-29T22:23:44.247Z,13.67
2022-10-29T22:26:12.787Z,13.07
2022-10-29T22:28:41.189Z,12.57
2022-10-29T22:31:10.008Z,14.23
2022-10-29T22:33:38.334Z,14.43
2022-10-29T22:36:09.092Z,14.70
2022-10-29T22:38:39.377Z,13.57
2022-10-29T22:41:09.484Z,14.27
2022-10-29T22:43:38.250Z,12.87
2022-10-29T22:46:08.209Z,12.60
2022-10-29T22:48:36.826Z,14.00
2022-10-29T22:51:07.230Z,13.97
2022-10-29T22:53:36.084Z,14.53
2022-10-29T22:56:06.896Z,15.87
2022-10-29T22:58:35.224Z,14.50
2022-10-29T23:01:05.737Z,14.47
2022-10-29T23:03:34.434Z,15.10
2022-10-29T23:06:04.851Z,14.97
2022-10-29T23:08:33.786Z,14.63
2022-10-29T23:11:06.866Z,13.27
2022-10-29T23:13:35.641Z,14.30
2022-10-29T23:16:04.178Z,15.20
2022-10-29T23:18:32.570Z,14.57
2022-10-29T23:21:01.992Z,15.73
2022-10-29T23:23:30.852Z,15.67
2022-10-29T23:26:02.389Z,15.10
2022-10-29T23:28:33.820Z,14.33
2022-10-29T23:31:04.351Z,13.60
2022-10-29T23:33:34.002Z,14.20
2022-10-29T23:36:06.946Z,13.90
2022-10-29T23:38:35.969Z,14.80
2022-10-29T23:41:04.829Z,14.20
2022-10-29T23:43:35.114Z,16.30
2022-10-29T23:46:03.638Z,14.40
2022-10-29T23:48:32.212Z,14.13
2022-10-29T23:51:01.874Z,14.80
2022-10-29T23:53:30.604Z,15.57
2022-10-29T23:55:58.922Z,14.47
2022-10-29T23:58:27.950Z,15.13
